2026/08/13

Sensor Date Temp./Hum.
h4-hermonville 13-08-2026 - 23:58 28.9°C / 30.5%
h2-hermonville 13-08-2026 - 23:54 28.6°C / 33%
h1-hermonville 13-08-2026 - 23:53 28.8°C / 31%
h3-hermonville 13-08-2026 - 23:50 28.9°C / 31.5%
h4-hermonville 13-08-2026 - 23:48 28.9°C / 32.5%
h2-hermonville 13-08-2026 - 23:44 28.9°C / 34.5%
h1-hermonville 13-08-2026 - 23:43 29.2°C / 31.5%
h3-hermonville 13-08-2026 - 23:40 29.6°C / 32%
h4-hermonville 13-08-2026 - 23:38 29.3°C / 32%
h2-hermonville 13-08-2026 - 23:34 29.2°C / 34%
h1-hermonville 13-08-2026 - 23:33 29.8°C / 28%
h3-hermonville 13-08-2026 - 23:30 29.9°C / 29.5%
h4-hermonville 13-08-2026 - 23:28 29.4°C / 30%
h2-hermonville 13-08-2026 - 23:24 29.4°C / 34%
h1-hermonville 13-08-2026 - 23:23 29.9°C / 27.5%
h3-hermonville 13-08-2026 - 23:20 30.2°C / 32%
h4-hermonville 13-08-2026 - 23:18 29.6°C / 31.5%
h2-hermonville 13-08-2026 - 23:14 29.5°C / 33%
h1-hermonville 13-08-2026 - 23:13 30.2°C / 26.5%
h3-hermonville 13-08-2026 - 23:10 30.9°C / 28.5%
h4-hermonville 13-08-2026 - 23:08 30°C / 28%
h2-hermonville 13-08-2026 - 23:04 29.9°C / 32%
h1-hermonville 13-08-2026 - 23:03 30.6°C / 26.5%
h3-hermonville 13-08-2026 - 23:00 31.1°C / 26%
h4-hermonville 13-08-2026 - 22:58 30.1°C / 28%
h2-hermonville 13-08-2026 - 22:54 30°C / 31%
h1-hermonville 13-08-2026 - 22:53 30.6°C / 27%
h3-hermonville 13-08-2026 - 22:50 31°C / 26%
h4-hermonville 13-08-2026 - 22:48 30.2°C / 28.5%
h2-hermonville 13-08-2026 - 22:44 30°C / 33%
h1-hermonville 13-08-2026 - 22:43 30.5°C / 28%
h3-hermonville 13-08-2026 - 22:40 31.1°C / 27.5%
h4-hermonville 13-08-2026 - 22:38 30.2°C / 29%
h2-hermonville 13-08-2026 - 22:34 29.8°C / 32%
h3-hermonville 13-08-2026 - 22:30 31.4°C / 27%
h4-hermonville 13-08-2026 - 22:28 30.5°C / 29%
h2-hermonville 13-08-2026 - 22:24 29.4°C / 33%
h1-hermonville 13-08-2026 - 22:23 31.2°C / 27.5%
h3-hermonville 13-08-2026 - 22:20 31.6°C / 27.5%
h4-hermonville 13-08-2026 - 22:18 30.6°C / 28.5%
h2-hermonville 13-08-2026 - 22:14 29.4°C / 33%
h1-hermonville 13-08-2026 - 22:13 31.4°C / 27%
h3-hermonville 13-08-2026 - 22:10 31.6°C / 27%
h4-hermonville 13-08-2026 - 22:08 30.6°C / 29%
h2-hermonville 13-08-2026 - 22:04 29.5°C / 33%
h1-hermonville 13-08-2026 - 22:03 31.5°C / 27.5%
h4-hermonville 13-08-2026 - 21:58 30.8°C / 29.5%
h1-hermonville 13-08-2026 - 21:53 31.4°C / 29%
h4-hermonville 13-08-2026 - 21:48 30.8°C / 30%
h2-hermonville 13-08-2026 - 21:44 29.5°C / 34%
h1-hermonville 13-08-2026 - 21:43 31.6°C / 28%
h3-hermonville 13-08-2026 - 21:40 31.9°C / 28.5%
h2-hermonville 13-08-2026 - 21:34 29.6°C / 34%
h3-hermonville 13-08-2026 - 21:30 32°C / 28.5%
h4-hermonville 13-08-2026 - 21:28 31°C / 30%
h2-hermonville 13-08-2026 - 21:24 29.5°C / 34%
h1-hermonville 13-08-2026 - 21:23 31.8°C / 29%
h3-hermonville 13-08-2026 - 21:20 32.2°C / 28%
h4-hermonville 13-08-2026 - 21:18 31.1°C / 30%
h2-hermonville 13-08-2026 - 21:14 29.6°C / 34%
h1-hermonville 13-08-2026 - 21:13 32°C / 28.5%
h3-hermonville 13-08-2026 - 21:10 32.2°C / 28.5%
h4-hermonville 13-08-2026 - 21:08 31.2°C / 30%
h2-hermonville 13-08-2026 - 21:04 29.6°C / 34%
h1-hermonville 13-08-2026 - 21:03 32°C / 29%
h3-hermonville 13-08-2026 - 21:00 32.4°C / 28.5%
h4-hermonville 13-08-2026 - 20:58 31.4°C / 30%
h2-hermonville 13-08-2026 - 20:54 29.7°C / 34%
h1-hermonville 13-08-2026 - 20:53 32.1°C / 29%
h3-hermonville 13-08-2026 - 20:50 32.6°C / 28%
h4-hermonville 13-08-2026 - 20:48 31.6°C / 30%
h1-hermonville 13-08-2026 - 20:43 32.4°C / 28.5%
h3-hermonville 13-08-2026 - 20:40 33°C / 28%
h4-hermonville 13-08-2026 - 20:38 31.8°C / 29.5%
h2-hermonville 13-08-2026 - 20:34 30.1°C / 33.5%
h1-hermonville 13-08-2026 - 20:33 32.8°C / 29%
h3-hermonville 13-08-2026 - 20:30 33.3°C / 28%
h4-hermonville 13-08-2026 - 20:28 32°C / 30.5%
h2-hermonville 13-08-2026 - 20:24 30.5°C / 33%
h1-hermonville 13-08-2026 - 20:23 33.2°C / 28.5%
h3-hermonville 13-08-2026 - 20:20 33.7°C / 27.5%
h4-hermonville 13-08-2026 - 20:18 32.3°C / 29%
h2-hermonville 13-08-2026 - 20:14 31.1°C / 31.5%
h1-hermonville 13-08-2026 - 20:13 33.6°C / 27.5%
h3-hermonville 13-08-2026 - 20:10 33.9°C / 26.5%
h4-hermonville 13-08-2026 - 20:08 32.4°C / 28%
h2-hermonville 13-08-2026 - 20:04 32.3°C / 29.5%
h1-hermonville 13-08-2026 - 20:03 33.9°C / 26.5%
h3-hermonville 13-08-2026 - 20:00 34.1°C / 26%
h4-hermonville 13-08-2026 - 19:58 32.5°C / 28%
h2-hermonville 13-08-2026 - 19:54 32.5°C / 29%
h1-hermonville 13-08-2026 - 19:53 34.2°C / 26%
h3-hermonville 13-08-2026 - 19:50 34.3°C / 25.5%
h4-hermonville 13-08-2026 - 19:48 32.8°C / 27%
h2-hermonville 13-08-2026 - 19:44 32.9°C / 28%
h1-hermonville 13-08-2026 - 19:43 34.4°C / 25%
h3-hermonville 13-08-2026 - 19:40 34.6°C / 25%
h4-hermonville 13-08-2026 - 19:38 33°C / 26.5%
h2-hermonville 13-08-2026 - 19:34 33°C / 27.5%
h1-hermonville 13-08-2026 - 19:33 34.5°C / 24.5%
h3-hermonville 13-08-2026 - 19:30 34.7°C / 24%
h4-hermonville 13-08-2026 - 19:28 33.1°C / 25.5%
h2-hermonville 13-08-2026 - 19:24 33.6°C / 27%
h1-hermonville 13-08-2026 - 19:23 34.6°C / 24%
h3-hermonville 13-08-2026 - 19:20 34.9°C / 24%
h4-hermonville 13-08-2026 - 19:18 33.2°C / 26%
h2-hermonville 13-08-2026 - 19:14 33.8°C / 26.5%
h1-hermonville 13-08-2026 - 19:13 34.8°C / 23.5%
h3-hermonville 13-08-2026 - 19:10 34.9°C / 23.5%
h4-hermonville 13-08-2026 - 19:08 33.3°C / 25.5%
h2-hermonville 13-08-2026 - 19:04 34.1°C / 26.5%
h1-hermonville 13-08-2026 - 19:03 35°C / 23.5%
h3-hermonville 13-08-2026 - 19:00 34.9°C / 23.5%
h4-hermonville 13-08-2026 - 18:58 33.6°C / 25.5%
h2-hermonville 13-08-2026 - 18:54 34.1°C / 26%
h1-hermonville 13-08-2026 - 18:53 35.1°C / 23%
h3-hermonville 13-08-2026 - 18:50 35.1°C / 24%
h4-hermonville 13-08-2026 - 18:48 33.6°C / 25%
h2-hermonville 13-08-2026 - 18:44 34.4°C / 26%
h1-hermonville 13-08-2026 - 18:43 35.1°C / 23.5%
h3-hermonville 13-08-2026 - 18:40 35°C / 23.5%
h4-hermonville 13-08-2026 - 18:38 33.7°C / 25%
h2-hermonville 13-08-2026 - 18:34 34.4°C / 26%
h1-hermonville 13-08-2026 - 18:33 35.1°C / 23%
h3-hermonville 13-08-2026 - 18:30 35.3°C / 23%
h4-hermonville 13-08-2026 - 18:28 33.8°C / 24.5%
h2-hermonville 13-08-2026 - 18:24 34.1°C / 26%
h1-hermonville 13-08-2026 - 18:23 35°C / 23.5%
h3-hermonville 13-08-2026 - 18:20 35.4°C / 23%
h4-hermonville 13-08-2026 - 18:18 33.8°C / 24.5%
h2-hermonville 13-08-2026 - 18:14 33.8°C / 26%
h1-hermonville 13-08-2026 - 18:13 35.1°C / 23.5%
h3-hermonville 13-08-2026 - 18:10 35.6°C / 23%
h4-hermonville 13-08-2026 - 18:08 33.5°C / 25%
h2-hermonville 13-08-2026 - 18:04 34.4°C / 25.5%
h1-hermonville 13-08-2026 - 18:03 35.3°C / 23%
h3-hermonville 13-08-2026 - 18:00 35.6°C / 22.5%
h2-hermonville 13-08-2026 - 17:54 34.3°C / 25.5%
h1-hermonville 13-08-2026 - 17:53 35.2°C / 23%
h3-hermonville 13-08-2026 - 17:50 35.5°C / 23%
h4-hermonville 13-08-2026 - 17:48 33.7°C / 25%
h2-hermonville 13-08-2026 - 17:44 34.7°C / 25%
h1-hermonville 13-08-2026 - 17:43 34.8°C / 23.5%
h3-hermonville 13-08-2026 - 17:40 35.5°C / 23%
h4-hermonville 13-08-2026 - 17:38 34°C / 24.5%
h2-hermonville 13-08-2026 - 17:34 36.2°C / 23.5%
h1-hermonville 13-08-2026 - 17:33 34.7°C / 23%
h3-hermonville 13-08-2026 - 17:30 35.5°C / 22.5%
h4-hermonville 13-08-2026 - 17:28 33.7°C / 25%
h2-hermonville 13-08-2026 - 17:24 36.9°C / 23%
h1-hermonville 13-08-2026 - 17:23 34.6°C / 23.5%
h3-hermonville 13-08-2026 - 17:20 35.2°C / 22.5%
h2-hermonville 13-08-2026 - 17:14 33.8°C / 25.5%
h1-hermonville 13-08-2026 - 17:13 34.8°C / 23.5%
h3-hermonville 13-08-2026 - 17:10 34.5°C / 23.5%
h4-hermonville 13-08-2026 - 17:08 34.4°C / 24%
h2-hermonville 13-08-2026 - 17:04 33.9°C / 25%
h1-hermonville 13-08-2026 - 17:03 34.3°C / 23.5%
h3-hermonville 13-08-2026 - 17:00 34.2°C / 23.5%
h4-hermonville 13-08-2026 - 16:58 34.1°C / 23.5%
h2-hermonville 13-08-2026 - 16:54 34°C / 25%
h1-hermonville 13-08-2026 - 16:53 34.4°C / 23.5%
h3-hermonville 13-08-2026 - 16:50 34.7°C / 23%
h4-hermonville 13-08-2026 - 16:48 33.8°C / 24%
h2-hermonville 13-08-2026 - 16:44 33.4°C / 26%
h1-hermonville 13-08-2026 - 16:43 34.8°C / 22.5%
h3-hermonville 13-08-2026 - 16:40 35.2°C / 22.5%
h4-hermonville 13-08-2026 - 16:38 33.3°C / 24.5%
h2-hermonville 13-08-2026 - 16:34 33.2°C / 26%
h1-hermonville 13-08-2026 - 16:33 34.4°C / 23%
h3-hermonville 13-08-2026 - 16:30 35.3°C / 22.5%
h4-hermonville 13-08-2026 - 16:28 33.4°C / 24.5%
h1-hermonville 13-08-2026 - 16:23 34.5°C / 23%
h3-hermonville 13-08-2026 - 16:20 35.3°C / 22.5%
h2-hermonville 13-08-2026 - 16:14 31.5°C / 27.5%
h1-hermonville 13-08-2026 - 16:13 34.2°C / 23.5%
h4-hermonville 13-08-2026 - 16:08 33.7°C / 23.5%
h2-hermonville 13-08-2026 - 16:04 31.3°C / 28%
h1-hermonville 13-08-2026 - 16:03 33.9°C / 23%
h3-hermonville 13-08-2026 - 16:00 34.7°C / 22%
h4-hermonville 13-08-2026 - 15:58 33.5°C / 24%
h2-hermonville 13-08-2026 - 15:54 31.4°C / 27%
h1-hermonville 13-08-2026 - 15:53 33.6°C / 24%
h3-hermonville 13-08-2026 - 15:50 34.2°C / 23%
h2-hermonville 13-08-2026 - 15:44 30.1°C / 29%
h3-hermonville 13-08-2026 - 15:40 34.1°C / 23%
h2-hermonville 13-08-2026 - 15:34 29.8°C / 29%
h1-hermonville 13-08-2026 - 15:33 33.6°C / 23.5%
h3-hermonville 13-08-2026 - 15:30 34.5°C / 22.5%
h2-hermonville 13-08-2026 - 15:24 29.4°C / 30%
h1-hermonville 13-08-2026 - 15:23 33.3°C / 24%
h3-hermonville 13-08-2026 - 15:20 34.3°C / 22.5%
h2-hermonville 13-08-2026 - 15:14 29.1°C / 30%
h1-hermonville 13-08-2026 - 15:13 33.1°C / 23.5%
h3-hermonville 13-08-2026 - 15:10 33.6°C / 23.5%
h2-hermonville 13-08-2026 - 15:04 29.3°C / 29.5%
h1-hermonville 13-08-2026 - 15:03 32.6°C / 24%
h3-hermonville 13-08-2026 - 15:00 33.2°C / 23.5%
h4-hermonville 13-08-2026 - 14:58 33°C / 23.5%
h2-hermonville 13-08-2026 - 14:54 30.1°C / 28.5%
h1-hermonville 13-08-2026 - 14:53 32.5°C / 24%
h3-hermonville 13-08-2026 - 14:50 33°C / 24%
h4-hermonville 13-08-2026 - 14:48 32.9°C / 23.5%
h2-hermonville 13-08-2026 - 14:44 29.3°C / 29%
h1-hermonville 13-08-2026 - 14:43 32.6°C / 23.5%
h3-hermonville 13-08-2026 - 14:40 32.9°C / 24%
h4-hermonville 13-08-2026 - 14:38 32.8°C / 23.5%
h2-hermonville 13-08-2026 - 14:34 29.2°C / 29%
h1-hermonville 13-08-2026 - 14:33 31.7°C / 25%
h3-hermonville 13-08-2026 - 14:30 32.3°C / 24.5%
h4-hermonville 13-08-2026 - 14:28 32.6°C / 23.5%
h2-hermonville 13-08-2026 - 14:24 28.7°C / 30%
h1-hermonville 13-08-2026 - 14:23 31.9°C / 24.5%
h3-hermonville 13-08-2026 - 14:20 32.4°C / 24.5%
h2-hermonville 13-08-2026 - 14:14 29.1°C / 29.5%
h1-hermonville 13-08-2026 - 14:13 31.1°C / 25.5%
h3-hermonville 13-08-2026 - 14:10 32°C / 24.5%
h4-hermonville 13-08-2026 - 14:08 32.4°C / 23.5%
h2-hermonville 13-08-2026 - 14:04 28.9°C / 29.5%
h1-hermonville 13-08-2026 - 14:03 31.3°C / 25%
h3-hermonville 13-08-2026 - 14:00 31.5°C / 25%
h4-hermonville 13-08-2026 - 13:58 32.1°C / 24%
h2-hermonville 13-08-2026 - 13:54 28.9°C / 29.5%
h3-hermonville 13-08-2026 - 13:50 31.2°C / 25.5%
h4-hermonville 13-08-2026 - 13:48 32.1°C / 24%
h2-hermonville 13-08-2026 - 13:44 29.4°C / 28.5%
h1-hermonville 13-08-2026 - 13:43 30.4°C / 26.5%
h3-hermonville 13-08-2026 - 13:40 31°C / 26%
h2-hermonville 13-08-2026 - 13:34 28.7°C / 29.5%
h1-hermonville 13-08-2026 - 13:33 30.7°C / 26%
h3-hermonville 13-08-2026 - 13:30 31.1°C / 26%
h2-hermonville 13-08-2026 - 13:24 28.8°C / 29%
h1-hermonville 13-08-2026 - 13:23 30.5°C / 26%
h4-hermonville 13-08-2026 - 13:18 31.9°C / 24%
h2-hermonville 13-08-2026 - 13:14 28.9°C / 29%
h1-hermonville 13-08-2026 - 13:13 30.3°C / 26.5%
h3-hermonville 13-08-2026 - 13:10 30.1°C / 26.5%
h4-hermonville 13-08-2026 - 13:08 31.5°C / 24.5%
h2-hermonville 13-08-2026 - 13:04 28.4°C / 29.5%
h1-hermonville 13-08-2026 - 13:03 30°C / 26%
h3-hermonville 13-08-2026 - 13:00 30.4°C / 27%
h4-hermonville 13-08-2026 - 12:58 31.5°C / 25%
h2-hermonville 13-08-2026 - 12:54 28.8°C / 29%
h1-hermonville 13-08-2026 - 12:53 29.3°C / 28%
h3-hermonville 13-08-2026 - 12:50 29.5°C / 27.5%
h4-hermonville 13-08-2026 - 12:48 31.3°C / 25%
h2-hermonville 13-08-2026 - 12:44 28.2°C / 29.5%
h1-hermonville 13-08-2026 - 12:43 29.1°C / 27.5%
h3-hermonville 13-08-2026 - 12:40 29.4°C / 27.5%
h2-hermonville 13-08-2026 - 12:34 27.9°C / 30%
h1-hermonville 13-08-2026 - 12:33 28.9°C / 28%
h3-hermonville 13-08-2026 - 12:30 29.3°C / 27.5%
h4-hermonville 13-08-2026 - 12:28 31.3°C / 24.5%
h2-hermonville 13-08-2026 - 12:24 27.5°C / 31%
h1-hermonville 13-08-2026 - 12:23 29°C / 27.5%
h3-hermonville 13-08-2026 - 12:20 29°C / 27.5%
h4-hermonville 13-08-2026 - 12:18 31.5°C / 24%
h2-hermonville 13-08-2026 - 12:14 27.3°C / 30.5%
h1-hermonville 13-08-2026 - 12:13 28.7°C / 28%
h3-hermonville 13-08-2026 - 12:10 28.7°C / 28%
h4-hermonville 13-08-2026 - 12:08 32.6°C / 22.5%
h2-hermonville 13-08-2026 - 12:04 27.2°C / 31.5%
h1-hermonville 13-08-2026 - 12:03 28.5°C / 28%
h4-hermonville 13-08-2026 - 11:58 34.1°C / 21%
h2-hermonville 13-08-2026 - 11:54 26.8°C / 32%
h1-hermonville 13-08-2026 - 11:53 28.1°C / 28.5%
h3-hermonville 13-08-2026 - 11:50 28°C / 28.5%
h4-hermonville 13-08-2026 - 11:48 34.1°C / 22%
h2-hermonville 13-08-2026 - 11:44 26.8°C / 31.5%
h1-hermonville 13-08-2026 - 11:43 27.6°C / 29%
h3-hermonville 13-08-2026 - 11:40 27.7°C / 29%
h4-hermonville 13-08-2026 - 11:38 34.8°C / 20.5%
h2-hermonville 13-08-2026 - 11:34 26.8°C / 31.5%
h1-hermonville 13-08-2026 - 11:33 27.2°C / 29.5%
h3-hermonville 13-08-2026 - 11:30 27.2°C / 30.5%
h2-hermonville 13-08-2026 - 11:24 26.3°C / 32%
h1-hermonville 13-08-2026 - 11:23 27.1°C / 30.5%
h3-hermonville 13-08-2026 - 11:20 27°C / 30%
h4-hermonville 13-08-2026 - 11:18 34.3°C / 21%
h2-hermonville 13-08-2026 - 11:14 26°C / 32.5%
h1-hermonville 13-08-2026 - 11:13 26.7°C / 30.5%
h3-hermonville 13-08-2026 - 11:10 26.7°C / 30.5%
h4-hermonville 13-08-2026 - 11:08 34.1°C / 21%
h2-hermonville 13-08-2026 - 11:04 26°C / 32%
h1-hermonville 13-08-2026 - 11:03 26.3°C / 30%
h3-hermonville 13-08-2026 - 11:00 26.2°C / 31%
h4-hermonville 13-08-2026 - 10:58 33.4°C / 22%
h2-hermonville 13-08-2026 - 10:54 25.6°C / 32.5%
h1-hermonville 13-08-2026 - 10:53 25.8°C / 31%
h3-hermonville 13-08-2026 - 10:50 26°C / 31.5%
h4-hermonville 13-08-2026 - 10:48 32.9°C / 23%
h2-hermonville 13-08-2026 - 10:44 25.4°C / 32.5%
h1-hermonville 13-08-2026 - 10:43 25.6°C / 31%
h3-hermonville 13-08-2026 - 10:40 25.7°C / 32%
h4-hermonville 13-08-2026 - 10:38 32.6°C / 23%
h3-hermonville 13-08-2026 - 10:30 25.5°C / 32.5%
h4-hermonville 13-08-2026 - 10:28 32°C / 23%
h2-hermonville 13-08-2026 - 10:24 24.9°C / 32.5%
h1-hermonville 13-08-2026 - 10:23 24.9°C / 32%
h3-hermonville 13-08-2026 - 10:20 25.2°C / 32.5%
h4-hermonville 13-08-2026 - 10:18 31.5°C / 23%
h2-hermonville 13-08-2026 - 10:14 24.7°C / 32.5%
h3-hermonville 13-08-2026 - 10:10 24.9°C / 32.5%
h4-hermonville 13-08-2026 - 10:08 31°C / 23.5%
h2-hermonville 13-08-2026 - 10:04 24.5°C / 33%
h1-hermonville 13-08-2026 - 10:03 24.2°C / 33%
h3-hermonville 13-08-2026 - 10:00 24.6°C / 33%
h4-hermonville 13-08-2026 - 09:58 30.1°C / 24%
h2-hermonville 13-08-2026 - 09:54 24.3°C / 33%
h1-hermonville 13-08-2026 - 09:53 23.8°C / 33%
h3-hermonville 13-08-2026 - 09:50 24.3°C / 33.5%
h4-hermonville 13-08-2026 - 09:48 29.8°C / 24.5%
h2-hermonville 13-08-2026 - 09:44 23.9°C / 33.5%
h1-hermonville 13-08-2026 - 09:43 23.5°C / 33.5%
h3-hermonville 13-08-2026 - 09:40 24.2°C / 33.5%
h4-hermonville 13-08-2026 - 09:38 30°C / 24.5%
h2-hermonville 13-08-2026 - 09:34 23.8°C / 35%
h1-hermonville 13-08-2026 - 09:33 23°C / 35.5%
h3-hermonville 13-08-2026 - 09:30 23.9°C / 36%
h4-hermonville 13-08-2026 - 09:28 31°C / 24.5%
h2-hermonville 13-08-2026 - 09:24 23.1°C / 38.5%
h1-hermonville 13-08-2026 - 09:23 22.4°C / 39%
h3-hermonville 13-08-2026 - 09:20 23.6°C / 37%
h4-hermonville 13-08-2026 - 09:18 30°C / 27%
h2-hermonville 13-08-2026 - 09:14 23.1°C / 38%
h1-hermonville 13-08-2026 - 09:13 22.2°C / 38.5%
h3-hermonville 13-08-2026 - 09:10 23.3°C / 36.5%
h4-hermonville 13-08-2026 - 09:08 28.6°C / 28%
h2-hermonville 13-08-2026 - 09:04 23°C / 37%
h1-hermonville 13-08-2026 - 09:03 21.8°C / 39%
h3-hermonville 13-08-2026 - 09:00 23.2°C / 36.5%
h4-hermonville 13-08-2026 - 08:58 27.8°C / 28.5%
h2-hermonville 13-08-2026 - 08:54 23.1°C / 36%
h1-hermonville 13-08-2026 - 08:53 21.9°C / 38%
h3-hermonville 13-08-2026 - 08:50 23°C / 36%
h4-hermonville 13-08-2026 - 08:48 26.4°C / 29.5%
h2-hermonville 13-08-2026 - 08:44 22.9°C / 36%
h3-hermonville 13-08-2026 - 08:40 22.7°C / 36%
h4-hermonville 13-08-2026 - 08:38 26°C / 29.5%
h2-hermonville 13-08-2026 - 08:34 22.6°C / 36%
h1-hermonville 13-08-2026 - 08:33 21.8°C / 37%
h3-hermonville 13-08-2026 - 08:30 22.7°C / 36%
h4-hermonville 13-08-2026 - 08:28 25.1°C / 30.5%
h2-hermonville 13-08-2026 - 08:24 22.4°C / 36.5%
h1-hermonville 13-08-2026 - 08:23 21.6°C / 37%
h3-hermonville 13-08-2026 - 08:20 22.2°C / 37%
h4-hermonville 13-08-2026 - 08:18 23.9°C / 32.5%
h2-hermonville 13-08-2026 - 08:14 21.5°C / 39.5%
h1-hermonville 13-08-2026 - 08:13 21.5°C / 37.5%
h3-hermonville 13-08-2026 - 08:10 21.8°C / 38%
h4-hermonville 13-08-2026 - 08:08 23.4°C / 34%
h2-hermonville 13-08-2026 - 08:04 20.7°C / 44%
h1-hermonville 13-08-2026 - 08:03 21.1°C / 39.5%
h3-hermonville 13-08-2026 - 08:00 21.4°C / 42%
h4-hermonville 13-08-2026 - 07:58 23°C / 36%
h2-hermonville 13-08-2026 - 07:54 20.3°C / 45.5%
h1-hermonville 13-08-2026 - 07:53 20.8°C / 43%
h3-hermonville 13-08-2026 - 07:50 20.9°C / 41.5%
h4-hermonville 13-08-2026 - 07:48 22.8°C / 37.5%
h2-hermonville 13-08-2026 - 07:44 19.9°C / 46%
h1-hermonville 13-08-2026 - 07:43 20.6°C / 44%
h4-hermonville 13-08-2026 - 07:38 22.5°C / 38.5%
h2-hermonville 13-08-2026 - 07:34 19.3°C / 46.5%
h1-hermonville 13-08-2026 - 07:33 20.4°C / 43%
h3-hermonville 13-08-2026 - 07:30 20.6°C / 43%
h4-hermonville 13-08-2026 - 07:28 22°C / 40.5%
h2-hermonville 13-08-2026 - 07:24 19.1°C / 46%
h1-hermonville 13-08-2026 - 07:23 20.3°C / 43%
h3-hermonville 13-08-2026 - 07:20 20.5°C / 43.5%
h4-hermonville 13-08-2026 - 07:18 21.7°C / 41%
h2-hermonville 13-08-2026 - 07:14 18.9°C / 47.5%
h1-hermonville 13-08-2026 - 07:13 19.9°C / 44.5%
h3-hermonville 13-08-2026 - 07:10 20.4°C / 43%
h4-hermonville 13-08-2026 - 07:08 21.8°C / 40.5%
h2-hermonville 13-08-2026 - 07:04 19°C / 46%
h1-hermonville 13-08-2026 - 07:03 19.7°C / 44%
h3-hermonville 13-08-2026 - 07:00 20°C / 43.5%
h4-hermonville 13-08-2026 - 06:58 21.3°C / 41%
h2-hermonville 13-08-2026 - 06:54 19°C / 46%
h1-hermonville 13-08-2026 - 06:53 19.4°C / 45%
h3-hermonville 13-08-2026 - 06:50 19.6°C / 44%
h4-hermonville 13-08-2026 - 06:48 21.1°C / 42%
h2-hermonville 13-08-2026 - 06:44 19.1°C / 45.5%
h3-hermonville 13-08-2026 - 06:40 19.8°C / 44.5%
h4-hermonville 13-08-2026 - 06:38 21.2°C / 42%
h2-hermonville 13-08-2026 - 06:34 19.3°C / 48.5%
h1-hermonville 13-08-2026 - 06:33 19.5°C / 47.5%
h3-hermonville 13-08-2026 - 06:30 19.8°C / 46%
h4-hermonville 13-08-2026 - 06:28 21.5°C / 41.5%
h2-hermonville 13-08-2026 - 06:24 19.4°C / 47.5%
h1-hermonville 13-08-2026 - 06:23 19.6°C / 46.5%
h3-hermonville 13-08-2026 - 06:20 20.8°C / 43%
h4-hermonville 13-08-2026 - 06:18 21.9°C / 40%
h1-hermonville 13-08-2026 - 06:13 20.2°C / 42%
h3-hermonville 13-08-2026 - 06:10 21.3°C / 40%
h4-hermonville 13-08-2026 - 06:08 22.1°C / 38.5%
h2-hermonville 13-08-2026 - 06:04 19.7°C / 43.5%
h1-hermonville 13-08-2026 - 06:03 20.7°C / 41%
h3-hermonville 13-08-2026 - 06:00 21.2°C / 40%
h4-hermonville 13-08-2026 - 05:58 22°C / 38.5%
h2-hermonville 13-08-2026 - 05:54 19.7°C / 44%
h1-hermonville 13-08-2026 - 05:53 20.7°C / 42%
h4-hermonville 13-08-2026 - 05:48 22.1°C / 39%
h2-hermonville 13-08-2026 - 05:44 19.7°C / 43.5%
h1-hermonville 13-08-2026 - 05:43 20.9°C / 41.5%
h3-hermonville 13-08-2026 - 05:40 21.1°C / 39.5%
h4-hermonville 13-08-2026 - 05:38 22.1°C / 39%
h2-hermonville 13-08-2026 - 05:34 19.9°C / 45%
h1-hermonville 13-08-2026 - 05:33 20.9°C / 42.5%
h3-hermonville 13-08-2026 - 05:30 21.1°C / 39%
h4-hermonville 13-08-2026 - 05:28 22.4°C / 38.5%
h2-hermonville 13-08-2026 - 05:24 20°C / 43%
h1-hermonville 13-08-2026 - 05:23 20.8°C / 41%
h3-hermonville 13-08-2026 - 05:20 21.7°C / 39.5%
h4-hermonville 13-08-2026 - 05:18 22.1°C / 38.5%
h2-hermonville 13-08-2026 - 05:14 20.1°C / 42.5%
h1-hermonville 13-08-2026 - 05:13 21.2°C / 40.5%
h3-hermonville 13-08-2026 - 05:10 21.9°C / 39.5%
h4-hermonville 13-08-2026 - 05:08 22°C / 38.5%
h2-hermonville 13-08-2026 - 05:04 20.2°C / 42%
h1-hermonville 13-08-2026 - 05:03 21.2°C / 41%
h4-hermonville 13-08-2026 - 04:58 22.2°C / 38.5%
h2-hermonville 13-08-2026 - 04:54 20.3°C / 43.5%
h1-hermonville 13-08-2026 - 04:53 21.3°C / 41%
h3-hermonville 13-08-2026 - 04:50 22°C / 40%
h4-hermonville 13-08-2026 - 04:48 22.1°C / 38.5%
h2-hermonville 13-08-2026 - 04:44 20.3°C / 43.5%
h1-hermonville 13-08-2026 - 04:43 21.5°C / 40.5%
h3-hermonville 13-08-2026 - 04:40 22.1°C / 40.5%
h4-hermonville 13-08-2026 - 04:38 22.3°C / 38.5%
h2-hermonville 13-08-2026 - 04:34 20.3°C / 43%
h1-hermonville 13-08-2026 - 04:33 21.5°C / 41%
h3-hermonville 13-08-2026 - 04:30 22°C / 38.5%
h4-hermonville 13-08-2026 - 04:28 22.6°C / 39%
h2-hermonville 13-08-2026 - 04:24 20.5°C / 43%
h1-hermonville 13-08-2026 - 04:23 21.6°C / 41.5%
h3-hermonville 13-08-2026 - 04:20 21.6°C / 42%
h4-hermonville 13-08-2026 - 04:18 22.6°C / 39.5%
h2-hermonville 13-08-2026 - 04:14 20.3°C / 44.5%
h1-hermonville 13-08-2026 - 04:13 21.5°C / 42.5%
h4-hermonville 13-08-2026 - 04:08 22.6°C / 40.5%
h2-hermonville 13-08-2026 - 04:04 20.1°C / 45.5%
h1-hermonville 13-08-2026 - 04:03 21.1°C / 44%
h3-hermonville 13-08-2026 - 04:00 21.3°C / 44%
h4-hermonville 13-08-2026 - 03:58 22.5°C / 41.5%
h2-hermonville 13-08-2026 - 03:54 20.1°C / 47.5%
h1-hermonville 13-08-2026 - 03:53 21.1°C / 45%
h3-hermonville 13-08-2026 - 03:50 20.8°C / 45%
h4-hermonville 13-08-2026 - 03:48 22.6°C / 42%
h2-hermonville 13-08-2026 - 03:44 20.3°C / 48.5%
h1-hermonville 13-08-2026 - 03:43 21.1°C / 46%
h3-hermonville 13-08-2026 - 03:40 20.9°C / 45.5%
h4-hermonville 13-08-2026 - 03:38 22.4°C / 42%
h2-hermonville 13-08-2026 - 03:34 20.6°C / 45.5%
h1-hermonville 13-08-2026 - 03:33 20.7°C / 44.5%
h3-hermonville 13-08-2026 - 03:30 21°C / 44.5%
h4-hermonville 13-08-2026 - 03:28 22.6°C / 42.5%
h2-hermonville 13-08-2026 - 03:24 20.7°C / 47.5%
h1-hermonville 13-08-2026 - 03:23 20.9°C / 45.5%
h3-hermonville 13-08-2026 - 03:20 21.1°C / 45.5%
h4-hermonville 13-08-2026 - 03:18 23°C / 42%
h2-hermonville 13-08-2026 - 03:14 20.9°C / 46.5%
h1-hermonville 13-08-2026 - 03:13 20.8°C / 47%
h3-hermonville 13-08-2026 - 03:10 21.6°C / 44.5%
h4-hermonville 13-08-2026 - 03:08 22.7°C / 43%
h2-hermonville 13-08-2026 - 03:04 21.6°C / 47%
h1-hermonville 13-08-2026 - 03:03 20.8°C / 48%
h3-hermonville 13-08-2026 - 03:00 21.8°C / 46%
h4-hermonville 13-08-2026 - 02:58 23.4°C / 41%
h2-hermonville 13-08-2026 - 02:54 21.8°C / 46.5%
h1-hermonville 13-08-2026 - 02:53 21.2°C / 43%
h3-hermonville 13-08-2026 - 02:50 22.6°C / 43%
h4-hermonville 13-08-2026 - 02:48 23.5°C / 37.5%
h2-hermonville 13-08-2026 - 02:44 22°C / 45%
h1-hermonville 13-08-2026 - 02:43 21.5°C / 42%
h3-hermonville 13-08-2026 - 02:40 23°C / 41%
h4-hermonville 13-08-2026 - 02:38 23.9°C / 37%
h1-hermonville 13-08-2026 - 02:33 21.7°C / 40.5%
h3-hermonville 13-08-2026 - 02:30 23.1°C / 40.5%
h4-hermonville 13-08-2026 - 02:28 23.9°C / 38.5%
h2-hermonville 13-08-2026 - 02:24 22.1°C / 43%
h1-hermonville 13-08-2026 - 02:23 22.3°C / 41.5%
h3-hermonville 13-08-2026 - 02:20 23.7°C / 38.5%
h4-hermonville 13-08-2026 - 02:18 24.3°C / 37.5%
h2-hermonville 13-08-2026 - 02:14 22.6°C / 41.5%
h1-hermonville 13-08-2026 - 02:13 22.7°C / 39.5%
h3-hermonville 13-08-2026 - 02:10 24.2°C / 38%
h4-hermonville 13-08-2026 - 02:08 24.8°C / 36%
h2-hermonville 13-08-2026 - 02:04 22.6°C / 41.5%
h1-hermonville 13-08-2026 - 02:03 22.7°C / 41.5%
h3-hermonville 13-08-2026 - 02:00 24.1°C / 37.5%
h4-hermonville 13-08-2026 - 01:58 25.2°C / 36.5%
h2-hermonville 13-08-2026 - 01:54 22.6°C / 41.5%
h1-hermonville 13-08-2026 - 01:53 22.7°C / 40%
h3-hermonville 13-08-2026 - 01:50 24.4°C / 38%
h4-hermonville 13-08-2026 - 01:48 25.3°C / 36.5%
h1-hermonville 13-08-2026 - 01:43 22.9°C / 39%
h3-hermonville 13-08-2026 - 01:40 24.6°C / 37.5%
h4-hermonville 13-08-2026 - 01:38 25.5°C / 36%
h2-hermonville 13-08-2026 - 01:34 22.9°C / 40.5%
h1-hermonville 13-08-2026 - 01:33 23.2°C / 39%
h3-hermonville 13-08-2026 - 01:30 24.8°C / 37.5%
h4-hermonville 13-08-2026 - 01:28 25.5°C / 36.5%
h2-hermonville 13-08-2026 - 01:24 23.2°C / 41%
h1-hermonville 13-08-2026 - 01:23 23.4°C / 40%
h3-hermonville 13-08-2026 - 01:20 24.9°C / 37.5%
h4-hermonville 13-08-2026 - 01:18 25.6°C / 36.5%
h1-hermonville 13-08-2026 - 01:13 23.8°C / 39%
h3-hermonville 13-08-2026 - 01:10 25.1°C / 37.5%
h4-hermonville 13-08-2026 - 01:08 25.7°C / 35.5%
h2-hermonville 13-08-2026 - 01:04 23.6°C / 42.5%
h1-hermonville 13-08-2026 - 01:03 24°C / 35.5%
h3-hermonville 13-08-2026 - 01:00 25.1°C / 37.5%
h4-hermonville 13-08-2026 - 00:58 25.9°C / 35.5%
h2-hermonville 13-08-2026 - 00:54 23.7°C / 40.5%
h1-hermonville 13-08-2026 - 00:53 24°C / 39.5%
h3-hermonville 13-08-2026 - 00:50 25.2°C / 37.5%
h4-hermonville 13-08-2026 - 00:48 26°C / 35.5%
h1-hermonville 13-08-2026 - 00:43 24.2°C / 38.5%
h3-hermonville 13-08-2026 - 00:40 25.2°C / 38%
h4-hermonville 13-08-2026 - 00:38 26.1°C / 35.5%
h2-hermonville 13-08-2026 - 00:34 24.2°C / 40%
h1-hermonville 13-08-2026 - 00:33 24.4°C / 39%
h3-hermonville 13-08-2026 - 00:30 25.6°C / 37.5%
h4-hermonville 13-08-2026 - 00:28 26.3°C / 35.5%
h2-hermonville 13-08-2026 - 00:24 24.2°C / 39.5%
h1-hermonville 13-08-2026 - 00:23 24.4°C / 39%
h3-hermonville 13-08-2026 - 00:20 25.5°C / 37.5%
h4-hermonville 13-08-2026 - 00:18 26.4°C / 35.5%
h2-hermonville 13-08-2026 - 00:14 24.6°C / 40%
h1-hermonville 13-08-2026 - 00:13 24.9°C / 36.5%
h3-hermonville 13-08-2026 - 00:10 25.6°C / 37%
h4-hermonville 13-08-2026 - 00:08 26.5°C / 34.5%
h2-hermonville 13-08-2026 - 00:04 24.6°C / 39%
h1-hermonville 13-08-2026 - 00:03 25.1°C / 37.5%
h3-hermonville 13-08-2026 - 00:00 25.6°C / 37%